createdAt,value
2023-02-28T00:00:14.549Z,102778.09
2023-02-28T00:02:46.118Z,102780.97
2023-02-28T00:05:20.972Z,102786.72
2023-02-28T00:07:52.018Z,102789.81
2023-02-28T00:10:24.127Z,102780.53
2023-02-28T00:12:55.377Z,102777.69
2023-02-28T00:15:25.196Z,102785.06
2023-02-28T00:17:55.185Z,102790.84
2023-02-28T00:20:29.152Z,102787.53
2023-02-28T00:22:59.052Z,102787.09
2023-02-28T00:25:29.786Z,102788.34
2023-02-28T00:27:59.662Z,102787.31
2023-02-28T00:30:29.435Z,102784.66
2023-02-28T00:33:00.482Z,102782.59
2023-02-28T00:35:33.205Z,102790.59
2023-02-28T00:38:03.648Z,102784.22
2023-02-28T00:40:33.609Z,102785.25
2023-02-28T00:43:04.355Z,102790.59
2023-02-28T00:45:34.340Z,102792.06
2023-02-28T00:48:05.557Z,102786.06
2023-02-28T00:50:37.991Z,102792.03
2023-02-28T00:53:08.021Z,102794.28
2023-02-28T00:55:38.158Z,102796.13
2023-02-28T00:58:08.206Z,102793.25
2023-02-28T01:00:38.275Z,102805.34
2023-02-28T01:03:08.125Z,102805.75
2023-02-28T01:05:43.195Z,102802.66
2023-02-28T01:08:13.081Z,102803.88
2023-02-28T01:10:43.227Z,102805.91
2023-02-28T01:13:13.740Z,102809.63
2023-02-28T01:15:47.779Z,102809.63
2023-02-28T01:18:17.623Z,102802.63
2023-02-28T01:20:50.163Z,102812.09
2023-02-28T01:23:20.132Z,102811.44
2023-02-28T01:25:50.251Z,102816.56
2023-02-28T01:28:20.387Z,102814.28
2023-02-28T01:30:53.185Z,102805.84
2023-02-28T01:33:23.670Z,102806.03
2023-02-28T01:36:02.725Z,102810.75
2023-02-28T01:38:34.098Z,102805.81
2023-02-28T01:41:04.191Z,102801.69
2023-02-28T01:43:59.742Z,102802.91
2023-02-28T01:46:29.726Z,102798.38
2023-02-28T01:49:05.762Z,102801.88
2023-02-28T01:51:47.404Z,102790.94
2023-02-28T01:54:21.132Z,102800.41
2023-02-28T01:56:57.623Z,102793.78
2023-02-28T01:59:31.127Z,102792.56
2023-02-28T02:02:01.742Z,102789.06
2023-02-28T02:04:38.067Z,102785.16
2023-02-28T02:07:10.980Z,102781.09
2023-02-28T02:09:40.849Z,102780.66
2023-02-28T02:12:21.571Z,102783.97
2023-02-28T02:15:05.022Z,102782.75
2023-02-28T02:17:42.216Z,102776.19
2023-02-28T02:20:43.078Z,102770.03
2023-02-28T02:24:00.666Z,102772.91
2023-02-28T02:27:09.899Z,102767.94
2023-02-28T02:30:18.751Z,102763.38
2023-02-28T02:33:09.860Z,102768.72
2023-02-28T02:35:47.610Z,102762.53
2023-02-28T02:38:29.896Z,102761.06
2023-02-28T02:41:08.656Z,102762.94
2023-02-28T02:43:44.297Z,102764.16
2023-02-28T02:46:19.050Z,102768.69
2023-02-28T02:48:50.781Z,102755.50
2023-02-28T02:51:26.347Z,102762.06
2023-02-28T02:53:59.404Z,102769.25
2023-02-28T02:56:32.593Z,102765.16
2023-02-28T02:59:07.060Z,102768.19
2023-02-28T03:01:40.509Z,102777.22
2023-02-28T03:04:12.924Z,102773.94
2023-02-28T03:06:45.562Z,102771.63
2023-02-28T03:09:15.437Z,102777.38
2023-02-28T03:11:46.574Z,102770.59
2023-02-28T03:14:35.095Z,102775.50
2023-02-28T03:17:29.628Z,102765.84
2023-02-28T03:20:09.150Z,102759.06
2023-02-28T03:22:56.558Z,102760.25
2023-02-28T03:25:34.957Z,102769.28
2023-02-28T03:28:12.704Z,102765.16
2023-02-28T03:30:49.846Z,102765.75
2023-02-28T03:33:24.423Z,102770.47
2023-02-28T03:36:01.269Z,102774.16
2023-02-28T03:38:38.637Z,102770.47
2023-02-28T03:41:13.568Z,102771.28
2023-02-28T03:43:49.365Z,102769.22
2023-02-28T03:46:23.977Z,102772.53
2023-02-28T03:48:59.874Z,102781.34
2023-02-28T03:51:31.472Z,102780.53
2023-02-28T03:54:09.929Z,102775.41
2023-02-28T03:56:46.406Z,102774.56
2023-02-28T03:59:20.568Z,102775.78
2023-02-28T04:01:52.895Z,102781.13
2023-02-28T04:04:22.964Z,102777.81
2023-02-28T04:06:55.657Z,102772.88
2023-02-28T04:09:28.890Z,102779.63
2023-02-28T04:11:59.646Z,102775.28
2023-02-28T04:14:29.917Z,102775.69
2023-02-28T04:17:00.170Z,102777.75
2023-02-28T04:19:30.143Z,102776.47
2023-02-28T04:22:02.366Z,102775.22
2023-02-28T04:24:35.101Z,102778.03
2023-02-28T04:27:05.307Z,102776.59
2023-02-28T04:29:36.600Z,102778.66
2023-02-28T04:32:08.103Z,102785.38
2023-02-28T04:34:39.611Z,102786.38
2023-02-28T04:37:13.787Z,102782.91
2023-02-28T04:39:47.599Z,102787.78
2023-02-28T04:42:17.617Z,102786.31
2023-02-28T04:44:48.379Z,102788.19
2023-02-28T04:47:18.124Z,102786.88
2023-02-28T04:49:48.023Z,102786.88
2023-02-28T04:52:17.777Z,102792.63
2023-02-28T04:54:50.350Z,102798.34
2023-02-28T04:57:20.212Z,102796.88
2023-02-28T04:59:50.066Z,102800.34
2023-02-28T05:02:21.504Z,102796.25
2023-02-28T05:04:51.415Z,102793.78
2023-02-28T05:07:21.380Z,102804.59
2023-02-28T05:09:54.521Z,102797.81
2023-02-28T05:12:24.411Z,102803.34
2023-02-28T05:14:54.512Z,102807.22
2023-02-28T05:17:24.310Z,102807.41
2023-02-28T05:19:55.843Z,102804.72
2023-02-28T05:22:30.988Z,102807.22
2023-02-28T05:25:04.845Z,102805.19
2023-02-28T05:27:34.810Z,102811.16
2023-02-28T05:30:05.449Z,102814.44
2023-02-28T05:32:35.636Z,102813.47
2023-02-28T05:35:05.733Z,102813.47
2023-02-28T05:37:36.238Z,102817.94
2023-02-28T05:40:11.443Z,102813.00
2023-02-28T05:42:41.640Z,102817.91
2023-02-28T05:45:15.667Z,102816.59
2023-02-28T05:47:45.599Z,102821.31
2023-02-28T05:50:15.903Z,102818.38
2023-02-28T05:52:45.656Z,102833.75
2023-02-28T05:55:18.375Z,102827.13
2023-02-28T05:57:48.697Z,102826.50
2023-02-28T06:00:22.394Z,102828.69
2023-02-28T06:02:54.439Z,102837.69
2023-02-28T06:05:25.700Z,102836.25
2023-02-28T06:07:55.525Z,102826.97
2023-02-28T06:10:28.096Z,102834.31
2023-02-28T06:12:58.201Z,102836.34
2023-02-28T06:15:30.893Z,102835.06
2023-02-28T06:18:04.168Z,102842.22
2023-02-28T06:20:34.677Z,102840.78
2023-02-28T06:23:04.854Z,102841.13
2023-02-28T06:25:37.484Z,102846.47
2023-02-28T06:28:08.277Z,102853.81
2023-02-28T06:30:38.181Z,102852.16
2023-02-28T06:33:08.209Z,102861.19
2023-02-28T06:35:38.131Z,102856.19
2023-02-28T06:38:08.032Z,102858.22
2023-02-28T06:40:40.530Z,102866.59
2023-02-28T06:43:10.424Z,102864.94
2023-02-28T06:45:40.323Z,102865.13
2023-02-28T06:48:10.159Z,102865.31
2023-02-28T06:50:40.288Z,102871.66
2023-02-28T06:53:10.458Z,102873.69
2023-02-28T06:55:45.416Z,102873.69
2023-02-28T06:58:19.981Z,102870.34
2023-02-28T07:00:50.478Z,102874.66
2023-02-28T07:03:24.178Z,102874.03
2023-02-28T07:05:54.366Z,102870.00
2023-02-28T07:08:24.341Z,102876.59
2023-02-28T07:10:59.515Z,102879.53
2023-02-28T07:13:29.387Z,102872.66
2023-02-28T07:16:00.632Z,102874.31
2023-02-28T07:18:31.328Z,102874.31
2023-02-28T07:21:01.808Z,102872.84
2023-02-28T07:23:31.893Z,102878.72
2023-02-28T07:26:04.541Z,102878.91
2023-02-28T07:28:34.864Z,102882.59
2023-02-28T07:31:08.794Z,102886.91
2023-02-28T07:33:39.224Z,102892.22
2023-02-28T07:36:15.177Z,102891.22
2023-02-28T07:38:48.403Z,102888.84
2023-02-28T07:41:22.913Z,102890.09
2023-02-28T07:43:53.842Z,102890.75
2023-02-28T07:46:28.426Z,102888.34
2023-02-28T07:49:01.016Z,102892.56
2023-02-28T07:51:31.327Z,102893.13
2023-02-28T07:54:02.222Z,102884.91
2023-02-28T07:56:34.689Z,102883.56
2023-02-28T07:59:05.027Z,102881.81
2023-02-28T08:01:35.043Z,102883.75
2023-02-28T08:04:07.752Z,102888.31
2023-02-28T08:06:37.671Z,102887.53
2023-02-28T08:09:07.777Z,102874.50
2023-02-28T08:11:40.640Z,102881.38
2023-02-28T08:14:10.581Z,102887.66
2023-02-28T08:16:40.908Z,102882.31
2023-02-28T08:19:10.605Z,102888.31
2023-02-28T08:21:40.981Z,102885.84
2023-02-28T08:24:11.300Z,102887.66
2023-02-28T08:26:43.791Z,102879.00
2023-02-28T08:29:13.923Z,102891.16
2023-02-28T08:31:43.853Z,102886.00
2023-02-28T08:34:15.925Z,102894.28
2023-02-28T08:36:46.869Z,102891.59
2023-02-28T08:39:16.753Z,102892.25
2023-02-28T08:41:53.428Z,102890.56
2023-02-28T08:44:29.038Z,102898.00
2023-02-28T08:46:58.777Z,102894.09
2023-02-28T08:49:28.590Z,102891.41
2023-02-28T08:51:58.682Z,102891.41
2023-02-28T08:54:32.078Z,102882.75
2023-02-28T08:57:04.697Z,102885.84
2023-02-28T08:59:34.599Z,102888.31
2023-02-28T09:02:04.600Z,102876.97
2023-02-28T09:04:34.420Z,102879.25
2023-02-28T09:07:04.228Z,102879.84
2023-02-28T09:09:34.194Z,102871.19
2023-02-28T09:12:07.574Z,102872.44
2023-02-28T09:14:37.423Z,102874.09
2023-02-28T09:17:07.561Z,102869.94
2023-02-28T09:19:38.149Z,102866.25
2023-02-28T09:22:08.092Z,102863.75
2023-02-28T09:24:37.838Z,102855.50
2023-02-28T09:27:10.878Z,102866.63
2023-02-28T09:29:41.452Z,102867.03
2023-02-28T09:32:11.378Z,102865.78
2023-02-28T09:34:42.098Z,102864.31
2023-02-28T09:37:12.211Z,102865.91
2023-02-28T09:39:42.348Z,102856.59
2023-02-28T09:42:25.375Z,102858.03
2023-02-28T09:44:55.841Z,102867.44
2023-02-28T09:47:34.360Z,102865.72
2023-02-28T09:50:10.955Z,102866.63
2023-02-28T09:52:41.348Z,102860.41
2023-02-28T09:55:24.607Z,102866.56
2023-02-28T09:58:00.908Z,102862.97
2023-02-28T10:00:35.933Z,102862.25
2023-02-28T10:03:19.914Z,102857.88
2023-02-28T10:05:56.762Z,102857.19
2023-02-28T10:08:30.001Z,102856.03
2023-02-28T10:11:02.170Z,102853.56
2023-02-28T10:13:38.684Z,102850.22
2023-02-28T10:16:18.633Z,102858.75
2023-02-28T10:18:52.911Z,102857.09
2023-02-28T10:21:29.030Z,102849.19
2023-02-28T10:24:06.929Z,102845.59
2023-02-28T10:26:37.418Z,102842.19
2023-02-28T10:29:12.614Z,102844.09
2023-02-28T10:31:43.782Z,102840.81
2023-02-28T10:34:20.883Z,102845.00
2023-02-28T10:36:53.325Z,102847.56
2023-02-28T10:39:39.700Z,102846.28
2023-02-28T10:42:26.672Z,102845.22
2023-02-28T10:45:19.848Z,102850.63
2023-02-28T10:47:59.456Z,102847.13
2023-02-28T10:50:39.202Z,102856.97
2023-02-28T10:53:20.794Z,102836.50
2023-02-28T10:56:01.968Z,102826.03
2023-02-28T10:58:34.230Z,102836.34
2023-02-28T11:01:06.940Z,102830.81
2023-02-28T11:03:41.766Z,102827.22
2023-02-28T11:06:18.811Z,102838.50
2023-02-28T11:08:52.421Z,102820.84
2023-02-28T11:11:24.734Z,102827.03
2023-02-28T11:13:57.721Z,102815.78
2023-02-28T11:16:41.114Z,102828.94
2023-02-28T11:19:23.138Z,102812.94
2023-02-28T11:21:58.984Z,102814.97
2023-02-28T11:24:32.636Z,102813.72
2023-02-28T11:27:04.390Z,102808.00
2023-02-28T11:29:35.811Z,102810.16
2023-02-28T11:32:19.842Z,102817.66
2023-02-28T11:34:51.163Z,102811.56
2023-02-28T11:37:23.340Z,102813.69
2023-02-28T11:39:53.170Z,102806.91
2023-02-28T11:42:45.472Z,102811.81
2023-02-28T11:45:41.701Z,102809.81
2023-02-28T11:48:24.401Z,102801.38
2023-02-28T11:51:05.641Z,102803.59
2023-02-28T11:53:55.267Z,102801.63
2023-02-28T11:56:34.796Z,102799.84
2023-02-28T11:59:21.450Z,102797.41
2023-02-28T12:02:09.028Z,102795.28
2023-02-28T12:04:52.419Z,102780.03
2023-02-28T12:07:31.335Z,102787.06
2023-02-28T12:10:15.190Z,102780.28
2023-02-28T12:12:59.453Z,102784.72
2023-02-28T12:15:43.005Z,102775.00
2023-02-28T12:18:30.588Z,102780.88
2023-02-28T12:21:09.344Z,102777.56
2023-02-28T12:24:04.750Z,102767.28
2023-02-28T12:26:40.914Z,102752.28
2023-02-28T12:29:21.336Z,102767.97
2023-02-28T12:31:56.316Z,102750.63
2023-02-28T12:34:31.566Z,102750.28
2023-02-28T12:37:11.012Z,102759.19
2023-02-28T12:39:50.613Z,102735.38
2023-02-28T12:42:26.250Z,102750.75
2023-02-28T12:45:00.906Z,102749.00
2023-02-28T12:47:30.885Z,102738.06
2023-02-28T12:50:05.798Z,102731.00
2023-02-28T12:52:45.657Z,102724.09
2023-02-28T12:55:25.254Z,102724.91
2023-02-28T12:58:07.841Z,102714.69
2023-02-28T13:00:42.331Z,102722.41
2023-02-28T13:03:41.243Z,102711.44
2023-02-28T13:06:38.334Z,102706.53
2023-02-28T13:09:16.434Z,102710.47
2023-02-28T13:11:47.922Z,102701.81
2023-02-28T13:14:28.400Z,102701.31
2023-02-28T13:17:14.248Z,102708.34
2023-02-28T13:19:48.818Z,102696.13
2023-02-28T13:22:24.926Z,102696.88
2023-02-28T13:24:58.058Z,102696.50
2023-02-28T13:27:43.836Z,102693.22
2023-02-28T13:30:43.964Z,102701.31
2023-02-28T13:33:29.012Z,102690.34
2023-02-28T13:36:11.746Z,102688.09
2023-02-28T13:38:44.924Z,102686.59
2023-02-28T13:41:44.647Z,102691.50
2023-02-28T13:44:19.363Z,102687.94
2023-02-28T13:47:19.333Z,102680.09
2023-02-28T13:49:49.314Z,102683.13
2023-02-28T13:52:23.709Z,102679.94
2023-02-28T13:55:18.083Z,102680.91
2023-02-28T13:58:01.868Z,102677.72
2023-02-28T14:00:48.089Z,102683.94
2023-02-28T14:03:41.826Z,102688.41
2023-02-28T14:06:22.486Z,102676.22
2023-02-28T14:09:00.612Z,102683.50
2023-02-28T14:11:38.572Z,102680.22
2023-02-28T14:14:10.849Z,102683.94
2023-02-28T14:16:48.391Z,102684.03
2023-02-28T14:19:23.356Z,102675.81
2023-02-28T14:22:10.159Z,102675.31
2023-02-28T14:24:55.804Z,102665.44
2023-02-28T14:27:41.531Z,102669.47
2023-02-28T14:30:47.334Z,102663.06
2023-02-28T14:33:35.792Z,102659.50
2023-02-28T14:36:14.434Z,102665.66
2023-02-28T14:38:49.538Z,102672.84
2023-02-28T14:41:24.664Z,102668.50
2023-02-28T14:43:57.647Z,102671.72
2023-02-28T14:46:32.941Z,102671.72
2023-02-28T14:49:08.372Z,102670.09
2023-02-28T14:51:39.131Z,102667.44
2023-02-28T14:54:09.267Z,102653.94
2023-02-28T14:56:42.151Z,102653.38
2023-02-28T14:59:29.308Z,102651.25
2023-02-28T15:02:21.229Z,102654.34
2023-02-28T15:05:02.298Z,102657.97
2023-02-28T15:07:32.542Z,102653.63
2023-02-28T15:10:14.124Z,102649.78
2023-02-28T15:12:46.490Z,102639.88
2023-02-28T15:15:25.297Z,102641.44
2023-02-28T15:18:04.371Z,102644.97
2023-02-28T15:20:38.402Z,102650.94
2023-02-28T15:23:08.600Z,102647.16
2023-02-28T15:25:38.774Z,102644.47
2023-02-28T15:28:08.668Z,102636.69
2023-02-28T15:30:39.034Z,102637.41
2023-02-28T15:33:21.660Z,102641.09
2023-02-28T15:35:54.643Z,102645.78
2023-02-28T15:38:27.642Z,102651.91
2023-02-28T15:40:59.430Z,102642.28
2023-02-28T15:43:31.168Z,102640.13
2023-02-28T15:46:03.847Z,102659.03
2023-02-28T15:48:37.094Z,102643.09
2023-02-28T15:51:11.872Z,102646.00
2023-02-28T15:53:54.436Z,102639.31
2023-02-28T15:56:29.486Z,102640.22
2023-02-28T15:59:00.329Z,102645.38
2023-02-28T16:01:33.283Z,102655.16
2023-02-28T16:04:05.965Z,102653.53
2023-02-28T16:06:43.823Z,102652.88
2023-02-28T16:09:16.387Z,102654.00
2023-02-28T16:11:49.163Z,102644.84
2023-02-28T16:14:24.011Z,102640.81
2023-02-28T16:16:56.583Z,102644.66
2023-02-28T16:19:27.736Z,102653.84
2023-02-28T16:22:00.631Z,102654.91
2023-02-28T16:24:30.491Z,102653.97
2023-02-28T16:27:01.564Z,102663.84
2023-02-28T16:29:33.827Z,102658.19
2023-02-28T16:32:04.931Z,102664.72
2023-02-28T16:34:34.865Z,102656.28
2023-02-28T16:37:14.165Z,102664.06
2023-02-28T16:39:44.792Z,102667.78
2023-02-28T16:42:20.372Z,102670.41
2023-02-28T16:44:50.322Z,102675.19
2023-02-28T16:47:20.249Z,102675.13
2023-02-28T16:49:50.018Z,102684.72
2023-02-28T16:52:22.658Z,102679.81
2023-02-28T16:54:53.243Z,102681.91
2023-02-28T16:57:25.616Z,102682.41
2023-02-28T16:59:55.879Z,102679.13
2023-02-28T17:02:25.977Z,102685.09
2023-02-28T17:04:55.969Z,102687.59
2023-02-28T17:07:28.642Z,102685.94
2023-02-28T17:09:58.440Z,102682.66
2023-02-28T17:12:28.470Z,102695.00
2023-02-28T17:14:58.572Z,102696.25
2023-02-28T17:17:28.730Z,102705.66
2023-02-28T17:19:58.700Z,102698.88
2023-02-28T17:22:31.502Z,102694.63
2023-02-28T17:25:01.552Z,102698.84
2023-02-28T17:27:33.909Z,102705.16
2023-02-28T17:30:04.229Z,102707.72
2023-02-28T17:32:34.184Z,102711.94
2023-02-28T17:35:04.446Z,102705.38
2023-02-28T17:37:37.221Z,102713.31
2023-02-28T17:40:08.407Z,102713.22
2023-02-28T17:42:38.312Z,102710.41
2023-02-28T17:45:09.132Z,102706.53
2023-02-28T17:47:38.966Z,102721.53
2023-02-28T17:50:09.905Z,102716.56
2023-02-28T17:52:42.443Z,102717.88
2023-02-28T17:55:13.638Z,102723.34
2023-02-28T17:57:44.455Z,102718.88
2023-02-28T18:00:17.375Z,102724.97
2023-02-28T18:02:48.092Z,102719.22
2023-02-28T18:05:18.152Z,102715.13
2023-02-28T18:07:54.249Z,102714.75
2023-02-28T18:10:24.930Z,102717.91
2023-02-28T18:12:55.947Z,102727.47
2023-02-28T18:15:26.217Z,102722.00
2023-02-28T18:17:56.366Z,102729.91
2023-02-28T18:20:26.805Z,102726.84
2023-02-28T18:22:59.399Z,102737.72
2023-02-28T18:25:29.424Z,102734.88
2023-02-28T18:28:01.009Z,102736.13
2023-02-28T18:30:33.217Z,102731.91
2023-02-28T18:33:06.128Z,102736.69
2023-02-28T18:35:39.581Z,102731.16
2023-02-28T18:38:16.122Z,102738.88
2023-02-28T18:40:57.140Z,102733.09
2023-02-28T18:43:27.037Z,102733.19
2023-02-28T18:45:57.237Z,102726.97
2023-02-28T18:48:27.492Z,102734.84
2023-02-28T18:50:57.491Z,102732.34
2023-02-28T18:53:29.936Z,102734.47
2023-02-28T18:56:03.848Z,102732.00
2023-02-28T18:58:33.898Z,102735.75
2023-02-28T19:01:04.511Z,102729.97
2023-02-28T19:03:34.458Z,102731.25
2023-02-28T19:06:04.395Z,102732.53
2023-02-28T19:08:36.865Z,102739.41
2023-02-28T19:11:10.573Z,102742.16
2023-02-28T19:13:42.075Z,102734.75
2023-02-28T19:16:14.411Z,102742.69
2023-02-28T19:18:45.098Z,102731.16
2023-02-28T19:21:17.108Z,102740.72
2023-02-28T19:23:49.774Z,102746.53
2023-02-28T19:26:21.401Z,102747.63
2023-02-28T19:28:51.659Z,102742.75
2023-02-28T19:31:24.084Z,102744.25
2023-02-28T19:33:56.243Z,102742.66
2023-02-28T19:36:28.580Z,102747.25
2023-02-28T19:39:01.422Z,102752.25
2023-02-28T19:41:31.478Z,102745.69
2023-02-28T19:44:01.796Z,102757.66
2023-02-28T19:46:31.768Z,102764.28
2023-02-28T19:49:01.714Z,102767.19
2023-02-28T19:51:31.697Z,102765.16
2023-02-28T19:54:04.470Z,102760.84
2023-02-28T19:56:37.111Z,102765.59
2023-02-28T19:59:13.013Z,102766.47
2023-02-28T20:01:54.681Z,102766.28
2023-02-28T20:04:24.835Z,102769.41
2023-02-28T20:06:55.138Z,102769.00
2023-02-28T20:09:27.531Z,102766.78
2023-02-28T20:11:59.497Z,102772.75
2023-02-28T20:14:29.844Z,102769.47
2023-02-28T20:16:59.829Z,102777.34
2023-02-28T20:19:30.163Z,102777.78
2023-02-28T20:22:01.165Z,102774.47
2023-02-28T20:24:34.017Z,102776.56
2023-02-28T20:27:04.128Z,102774.69
2023-02-28T20:29:34.071Z,102780.66
2023-02-28T20:32:08.547Z,102779.03
2023-02-28T20:34:38.587Z,102781.91
2023-02-28T20:37:08.805Z,102774.91
2023-02-28T20:39:42.004Z,102771.63
2023-02-28T20:42:11.988Z,102772.66
2023-02-28T20:44:42.251Z,102776.81
2023-02-28T20:47:12.142Z,102776.63
2023-02-28T20:49:42.016Z,102777.88
2023-02-28T20:52:11.935Z,102774.41
2023-02-28T20:54:44.513Z,102777.69
2023-02-28T20:57:14.584Z,102779.19
2023-02-28T20:59:44.747Z,102772.59
2023-02-28T21:02:18.942Z,102770.53
2023-02-28T21:04:48.932Z,102766.44
2023-02-28T21:07:18.758Z,102771.19
2023-02-28T21:09:51.259Z,102774.25
2023-02-28T21:12:21.075Z,102769.34
2023-02-28T21:14:51.600Z,102765.44
2023-02-28T21:17:21.640Z,102779.25
2023-02-28T21:19:51.547Z,102761.94
2023-02-28T21:22:21.408Z,102775.78
2023-02-28T21:24:54.416Z,102771.84
2023-02-28T21:27:24.301Z,102777.63
2023-02-28T21:29:54.326Z,102781.75
2023-02-28T21:32:24.365Z,102776.84
2023-02-28T21:34:55.048Z,102773.94
2023-02-28T21:37:24.903Z,102777.06
2023-02-28T21:39:57.365Z,102780.13
2023-02-28T21:42:27.401Z,102782.19
2023-02-28T21:44:57.985Z,102771.91
2023-02-28T21:47:27.830Z,102777.66
2023-02-28T21:49:57.907Z,102779.13
2023-02-28T21:52:27.853Z,102776.84
2023-02-28T21:55:00.328Z,102771.94
2023-02-28T21:57:30.530Z,102779.31
2023-02-28T22:00:00.488Z,102775.41
2023-02-28T22:02:30.487Z,102780.16
2023-02-28T22:05:03.848Z,102779.53
2023-02-28T22:07:33.616Z,102785.53
2023-02-28T22:10:06.669Z,102779.34
2023-02-28T22:12:36.644Z,102788.19
2023-02-28T22:15:06.911Z,102779.34
2023-02-28T22:17:37.218Z,102775.81
2023-02-28T22:20:08.373Z,102778.50
2023-02-28T22:22:38.482Z,102774.19
2023-02-28T22:25:12.534Z,102777.28
2023-02-28T22:27:42.319Z,102780.16
2023-02-28T22:30:13.751Z,102776.03
2023-02-28T22:32:43.663Z,102772.13
2023-02-28T22:35:13.463Z,102783.66
2023-02-28T22:37:43.534Z,102781.38
2023-02-28T22:40:16.813Z,102782.81
2023-02-28T22:42:46.696Z,102786.09
2023-02-28T22:45:16.630Z,102783.03
2023-02-28T22:47:46.470Z,102787.13
2023-02-28T22:50:16.319Z,102792.06
2023-02-28T22:52:46.395Z,102793.28
2023-02-28T22:55:19.005Z,102786.72
2023-02-28T22:57:48.749Z,102782.78
2023-02-28T23:00:20.395Z,102780.53
2023-02-28T23:02:50.384Z,102780.91
2023-02-28T23:05:20.563Z,102779.69
2023-02-28T23:07:50.342Z,102776.38
2023-02-28T23:10:22.855Z,102766.91
2023-02-28T23:12:55.369Z,102771.84
2023-02-28T23:15:26.075Z,102764.00
2023-02-28T23:17:56.128Z,102779.63
2023-02-28T23:20:25.905Z,102782.69
2023-02-28T23:22:55.847Z,102791.13
2023-02-28T23:25:28.333Z,102789.88
2023-02-28T23:27:58.730Z,102792.75
2023-02-28T23:30:29.599Z,102790.28
2023-02-28T23:32:59.416Z,102797.69
2023-02-28T23:35:29.261Z,102801.38
2023-02-28T23:38:00.588Z,102804.44
2023-02-28T23:40:33.073Z,102802.19
2023-02-28T23:43:02.895Z,102798.88
2023-02-28T23:45:32.716Z,102800.31
2023-02-28T23:48:02.598Z,102798.00
2023-02-28T23:50:32.662Z,102805.41
2023-02-28T23:53:02.860Z,102805.41
2023-02-28T23:55:35.636Z,102819.38
2023-02-28T23:58:05.449Z,102813.03
